createdAt,value
2018-03-24T00:01:08.237Z,20.57
2018-03-24T00:03:35.697Z,19.90
2018-03-24T00:06:03.158Z,19.53
2018-03-24T00:08:30.617Z,18.70
2018-03-24T00:10:58.074Z,18.03
2018-03-24T00:13:25.540Z,17.90
2018-03-24T00:15:52.997Z,18.83
2018-03-24T00:18:20.460Z,15.60
2018-03-24T00:20:47.904Z,16.07
2018-03-24T00:23:15.364Z,15.43
2018-03-24T00:25:42.827Z,17.13
2018-03-24T00:28:10.300Z,17.30
2018-03-24T00:30:37.753Z,20.10
2018-03-24T00:33:05.217Z,19.37
2018-03-24T00:35:32.677Z,17.83
2018-03-24T00:38:00.163Z,17.50
2018-03-24T00:40:27.628Z,18.73
2018-03-24T00:42:55.089Z,18.93
2018-03-24T00:45:22.561Z,17.77
2018-03-24T00:47:50.014Z,17.77
2018-03-24T00:50:17.478Z,19.20
2018-03-24T00:52:44.940Z,16.90
2018-03-24T00:55:12.408Z,17.63
2018-03-24T00:57:39.861Z,19.13
2018-03-24T01:00:07.334Z,18.73
2018-03-24T01:02:34.791Z,17.57
2018-03-24T01:05:02.254Z,15.77
2018-03-24T01:07:29.717Z,15.17
2018-03-24T01:09:57.189Z,14.63
2018-03-24T01:12:24.642Z,16.33
2018-03-24T01:14:52.101Z,18.13
2018-03-24T01:17:19.583Z,15.87
2018-03-24T01:19:47.065Z,18.87
2018-03-24T01:22:15.281Z,19.80
2018-03-24T01:24:42.749Z,18.67
2018-03-24T01:27:10.208Z,15.03
2018-03-24T01:29:37.688Z,17.33
2018-03-24T01:32:05.153Z,14.17
2018-03-24T01:34:32.622Z,15.53
2018-03-24T01:37:00.081Z,16.87
2018-03-24T01:39:27.545Z,16.13
2018-03-24T01:41:55.001Z,18.93
2018-03-24T01:44:22.460Z,14.97
2018-03-24T01:46:49.909Z,17.83
2018-03-24T01:49:17.357Z,16.20
2018-03-24T01:51:44.821Z,16.20
2018-03-24T01:54:12.286Z,17.33
2018-03-24T01:56:39.743Z,14.97
2018-03-24T01:59:07.197Z,14.30
2018-03-24T02:01:35.434Z,17.30
2018-03-24T02:04:02.891Z,16.63
2018-03-24T02:06:30.361Z,19.97
2018-03-24T02:08:57.828Z,22.20
2018-03-24T02:11:25.302Z,21.17
2018-03-24T02:13:52.749Z,17.73
2018-03-24T02:16:20.226Z,15.57
2018-03-24T02:18:47.668Z,18.10
2018-03-24T02:21:15.529Z,16.90
2018-03-24T02:23:42.986Z,14.63
2018-03-24T02:26:10.452Z,15.23
2018-03-24T02:28:37.910Z,16.07
2018-03-24T02:31:05.381Z,13.97
2018-03-24T02:33:32.830Z,16.20
2018-03-24T02:36:00.300Z,16.57
2018-03-24T02:38:27.762Z,25.47
2018-03-24T02:40:55.222Z,20.37
2018-03-24T02:43:22.690Z,20.50
2018-03-24T02:45:50.148Z,22.40
2018-03-24T02:48:17.621Z,19.00
2018-03-24T02:50:45.078Z,37.87
2018-03-24T02:53:12.560Z,18.73
2018-03-24T02:55:40.019Z,24.77
2018-03-24T02:58:07.492Z,25.23
2018-03-24T03:00:35.734Z,23.37
2018-03-24T03:03:03.188Z,20.03
2018-03-24T03:05:30.673Z,17.90
2018-03-24T03:07:58.128Z,18.83
2018-03-24T03:10:25.579Z,18.57
2018-03-24T03:12:53.038Z,19.17
2018-03-24T03:15:20.494Z,19.33
2018-03-24T03:17:47.964Z,17.87
2018-03-24T03:20:15.421Z,19.53
2018-03-24T03:22:42.891Z,18.57
2018-03-24T03:25:10.344Z,18.43
2018-03-24T03:27:37.829Z,21.40
2018-03-24T03:30:05.283Z,16.50
2018-03-24T03:32:32.747Z,20.17
2018-03-24T03:35:00.201Z,17.47
2018-03-24T03:37:27.657Z,18.80
2018-03-24T03:39:55.122Z,21.47
2018-03-24T03:42:22.620Z,21.07
2018-03-24T03:44:50.074Z,17.60
2018-03-24T03:47:17.536Z,20.53
2018-03-24T03:49:44.993Z,25.30
2018-03-24T03:52:12.445Z,19.33
2018-03-24T03:54:39.905Z,22.23
2018-03-24T03:57:07.358Z,25.27
2018-03-24T03:59:34.822Z,20.60
2018-03-24T04:02:02.268Z,22.70
2018-03-24T04:04:29.733Z,20.17
2018-03-24T04:06:57.198Z,27.33
2018-03-24T04:09:25.507Z,20.20
2018-03-24T04:11:52.962Z,22.37
2018-03-24T04:14:20.419Z,21.60
2018-03-24T04:16:47.875Z,23.43
2018-03-24T04:19:15.325Z,18.90
2018-03-24T04:21:42.791Z,22.57
2018-03-24T04:24:10.262Z,18.07
2018-03-24T04:26:37.726Z,22.90
2018-03-24T04:29:05.185Z,21.37
2018-03-24T04:31:32.667Z,23.87
2018-03-24T04:34:00.120Z,21.03
2018-03-24T04:36:27.594Z,24.67
2018-03-24T04:38:55.048Z,20.13
2018-03-24T04:41:22.502Z,26.93
2018-03-24T04:43:55.065Z,26.10
2018-03-24T04:46:22.516Z,25.97
2018-03-24T04:48:50.009Z,26.93
2018-03-24T04:51:17.465Z,23.80
2018-03-24T04:53:44.926Z,27.17
2018-03-24T04:56:12.383Z,25.73
2018-03-24T04:58:39.849Z,21.20
2018-03-24T05:01:07.314Z,19.90
2018-03-24T05:03:34.776Z,22.83
2018-03-24T05:06:02.229Z,23.93
2018-03-24T05:08:29.693Z,20.37
2018-03-24T05:10:57.165Z,21.53
2018-03-24T05:13:24.618Z,22.87
2018-03-24T05:15:52.101Z,22.40
2018-03-24T05:18:19.584Z,26.37
2018-03-24T05:20:47.052Z,27.77
2018-03-24T05:23:14.553Z,23.83
2018-03-24T05:25:42.043Z,28.63
2018-03-24T05:28:10.315Z,24.30
2018-03-24T05:30:37.797Z,25.53
2018-03-24T05:33:05.256Z,28.50
2018-03-24T05:35:32.738Z,32.77
2018-03-24T05:38:00.190Z,25.27
2018-03-24T05:40:27.653Z,25.77
2018-03-24T05:42:55.111Z,23.17
2018-03-24T05:45:22.573Z,31.27
2018-03-24T05:47:50.034Z,25.93
2018-03-24T05:50:17.502Z,30.37
2018-03-24T05:52:44.952Z,24.53
2018-03-24T05:55:12.409Z,28.33
2018-03-24T05:57:39.877Z,30.80
2018-03-24T06:00:07.340Z,34.13
2018-03-24T06:02:34.795Z,28.13
2018-03-24T06:05:02.258Z,27.90
2018-03-24T06:07:29.712Z,27.13
2018-03-24T06:09:57.174Z,29.80
2018-03-24T06:12:24.661Z,32.70
2018-03-24T06:14:52.112Z,29.07
2018-03-24T06:17:19.617Z,34.80
2018-03-24T06:19:47.838Z,28.03
2018-03-24T06:22:15.296Z,27.87
2018-03-24T06:24:42.755Z,34.57
2018-03-24T06:27:10.211Z,34.33
2018-03-24T06:29:37.676Z,35.03
2018-03-24T06:32:05.896Z,32.50
2018-03-24T06:34:33.373Z,41.07
2018-03-24T06:37:12.582Z,27.47
2018-03-24T06:39:40.033Z,32.23
2018-03-24T06:42:07.503Z,29.67
2018-03-24T06:44:34.956Z,30.53
2018-03-24T06:47:02.437Z,35.37
2018-03-24T06:49:29.907Z,41.80
2018-03-24T06:51:57.381Z,38.30
2018-03-24T06:54:24.990Z,32.57
2018-03-24T06:56:52.479Z,34.77
2018-03-24T06:59:19.942Z,36.23
2018-03-24T07:01:47.406Z,46.33
2018-03-24T07:07:05.458Z,46.77
2018-03-24T07:09:32.922Z,32.10
2018-03-24T07:12:02.405Z,32.23
2018-03-24T07:14:29.866Z,37.73
2018-03-24T07:16:57.353Z,31.20
2018-03-24T07:19:24.808Z,30.50
2018-03-24T07:21:52.273Z,33.83
2018-03-24T07:24:19.739Z,40.83
2018-03-24T07:26:47.207Z,30.57
2018-03-24T07:29:14.666Z,27.00
2018-03-24T07:31:42.138Z,31.27
2018-03-24T07:34:09.617Z,31.37
2018-03-24T07:36:37.122Z,34.77
2018-03-24T07:39:04.593Z,28.87
2018-03-24T07:41:32.056Z,31.33
2018-03-24T07:43:59.514Z,28.97
2018-03-24T07:46:26.979Z,29.27
2018-03-24T07:48:54.462Z,32.83
2018-03-24T07:51:21.938Z,33.30
2018-03-24T07:53:49.458Z,35.03
2018-03-24T07:56:16.872Z,37.77
2018-03-24T07:58:44.333Z,31.93
2018-03-24T08:01:11.803Z,35.10
2018-03-24T08:03:39.267Z,31.03
2018-03-24T08:06:06.714Z,35.57
2018-03-24T08:08:39.550Z,32.67
2018-03-24T08:11:07.010Z,30.07
2018-03-24T08:13:34.483Z,35.27
2018-03-24T08:16:01.939Z,33.77
2018-03-24T08:18:29.414Z,33.13
2018-03-24T08:20:56.861Z,35.77
2018-03-24T08:23:24.316Z,32.13
2018-03-24T08:25:52.537Z,36.47
2018-03-24T08:28:20.007Z,32.47
2018-03-24T08:30:47.462Z,34.83
2018-03-24T08:33:14.937Z,41.30
2018-03-24T08:35:42.389Z,41.40
2018-03-24T08:38:09.854Z,33.33
2018-03-24T08:40:37.311Z,34.77
2018-03-24T08:43:04.814Z,42.33
2018-03-24T08:45:32.233Z,38.33
2018-03-24T08:47:59.695Z,37.40
2018-03-24T08:50:27.166Z,36.73
2018-03-24T08:52:54.643Z,36.27
2018-03-24T08:55:22.110Z,34.37
2018-03-24T08:57:49.553Z,36.33
2018-03-24T09:00:17.020Z,37.43
2018-03-24T09:02:44.480Z,34.20
2018-03-24T09:05:11.938Z,36.73
2018-03-24T09:07:39.396Z,36.00
2018-03-24T09:10:07.618Z,37.07
2018-03-24T09:12:35.068Z,35.50
2018-03-24T09:15:02.528Z,35.03
2018-03-24T09:17:29.989Z,36.03
2018-03-24T09:19:57.464Z,34.70
2018-03-24T09:22:25.876Z,39.00
2018-03-24T09:24:53.354Z,35.63
2018-03-24T09:27:20.814Z,35.77
2018-03-24T09:29:48.302Z,37.23
2018-03-24T09:32:15.756Z,34.53
2018-03-24T09:34:43.218Z,37.73
2018-03-24T09:37:10.683Z,40.97
2018-03-24T09:39:38.915Z,37.03
2018-03-24T09:42:07.149Z,37.47
2018-03-24T09:44:34.610Z,37.87
2018-03-24T09:47:02.075Z,39.00
2018-03-24T09:49:29.544Z,39.50
2018-03-24T09:51:57.020Z,44.83
2018-03-24T09:54:24.536Z,39.47
2018-03-24T09:56:52.006Z,35.90
2018-03-24T09:59:19.489Z,36.80
2018-03-24T10:01:46.951Z,40.73
2018-03-24T10:04:14.422Z,38.00
2018-03-24T10:06:41.897Z,39.60
2018-03-24T10:09:09.410Z,40.17
2018-03-24T10:11:37.613Z,40.43
2018-03-24T10:14:05.071Z,36.87
2018-03-24T10:16:32.533Z,38.63
2018-03-24T10:18:59.982Z,38.33
2018-03-24T10:24:31.857Z,38.60
2018-03-24T10:26:59.322Z,35.60
2018-03-24T10:29:26.793Z,36.90
2018-03-24T10:31:54.313Z,36.97
2018-03-24T10:34:22.535Z,36.43
2018-03-24T10:36:50.018Z,38.70
2018-03-24T10:39:17.494Z,35.87
2018-03-24T10:41:44.966Z,36.90
2018-03-24T10:44:12.420Z,35.30
2018-03-24T10:46:39.894Z,38.10
2018-03-24T10:49:07.352Z,37.20
2018-03-24T10:51:34.838Z,37.93
2018-03-24T10:54:02.299Z,36.97
2018-03-24T10:56:29.784Z,32.57
2018-03-24T10:58:57.241Z,33.13
2018-03-24T11:01:24.728Z,32.13
2018-03-24T11:03:52.207Z,31.53
2018-03-24T11:06:19.677Z,31.37
2018-03-24T11:08:47.154Z,19.77
2018-03-24T11:11:14.620Z,16.80
2018-03-24T11:13:42.845Z,13.73
2018-03-24T11:16:10.325Z,14.50
2018-03-24T11:18:37.785Z,14.40
2018-03-24T11:21:05.245Z,12.67
2018-03-24T11:23:32.702Z,11.90
2018-03-24T11:26:00.161Z,11.93
2018-03-24T11:28:27.621Z,11.07
2018-03-24T11:30:55.101Z,9.60
2018-03-24T11:33:22.557Z,10.10
2018-03-24T11:35:50.020Z,9.33
2018-03-24T11:38:17.487Z,9.50
2018-03-24T11:40:44.962Z,9.30
2018-03-24T11:43:12.433Z,9.47
2018-03-24T11:45:39.922Z,10.10
2018-03-24T11:48:08.151Z,11.17
2018-03-24T11:50:35.623Z,11.17
2018-03-24T11:53:03.099Z,12.13
2018-03-24T11:55:30.555Z,13.37
2018-03-24T11:58:00.010Z,12.20
2018-03-24T12:00:27.463Z,12.57
2018-03-24T12:02:55.704Z,12.63
2018-03-24T12:05:23.156Z,12.20
2018-03-24T12:07:50.612Z,12.20
2018-03-24T12:10:18.082Z,12.47
2018-03-24T12:12:45.545Z,11.40
2018-03-24T12:15:13.020Z,11.13
2018-03-24T12:17:40.501Z,12.07
2018-03-24T12:20:07.970Z,10.90
2018-03-24T12:22:35.445Z,11.27
2018-03-24T12:25:03.674Z,11.70
2018-03-24T12:27:31.151Z,12.00
2018-03-24T12:29:58.630Z,12.70
2018-03-24T12:32:26.856Z,13.03
2018-03-24T12:34:54.343Z,13.27
2018-03-24T12:37:21.820Z,12.63
2018-03-24T12:39:49.287Z,13.77
2018-03-24T12:42:16.754Z,14.13
2018-03-24T12:44:44.228Z,14.40
2018-03-24T12:47:11.703Z,13.47
2018-03-24T12:49:39.933Z,13.50
2018-03-24T12:52:07.392Z,13.57
2018-03-24T12:54:34.862Z,13.73
2018-03-24T12:57:02.353Z,13.33
2018-03-24T12:59:29.840Z,12.63
2018-03-24T13:01:58.066Z,13.00
2018-03-24T13:04:25.567Z,14.47
2018-03-24T13:06:53.820Z,14.03
2018-03-24T13:09:21.283Z,14.17
2018-03-24T13:11:48.750Z,14.03
2018-03-24T13:14:16.233Z,14.07
2018-03-24T13:16:44.467Z,15.13
2018-03-24T13:19:11.939Z,14.83
2018-03-24T13:21:39.397Z,13.13
2018-03-24T13:24:06.877Z,12.97
2018-03-24T13:26:34.396Z,12.37
2018-03-24T13:29:01.818Z,12.43
2018-03-24T13:31:29.290Z,13.20
2018-03-24T13:33:57.528Z,12.47
2018-03-24T13:36:24.999Z,13.17
2018-03-24T13:38:52.484Z,12.60
2018-03-24T13:41:19.947Z,12.87
2018-03-24T13:43:47.433Z,12.60
2018-03-24T13:46:15.685Z,12.50
2018-03-24T13:48:43.170Z,12.83
2018-03-24T13:51:11.405Z,12.27
2018-03-24T13:53:38.880Z,11.97
2018-03-24T13:56:06.352Z,11.97
2018-03-24T13:58:33.821Z,11.90
2018-03-24T14:01:01.288Z,11.93
2018-03-24T14:03:29.543Z,12.03
2018-03-24T14:05:57.006Z,11.30
2018-03-24T14:08:24.477Z,12.03
2018-03-24T14:10:51.952Z,12.43
2018-03-24T14:13:19.428Z,11.07
2018-03-24T14:15:47.678Z,12.53
2018-03-24T14:18:15.154Z,11.67
2018-03-24T14:20:42.647Z,11.63
2018-03-24T14:23:10.905Z,11.60
2018-03-24T14:25:38.373Z,12.23
2018-03-24T14:28:06.612Z,12.57
2018-03-24T14:30:34.076Z,14.30
2018-03-24T14:33:01.538Z,12.70
2018-03-24T14:35:29.006Z,12.73
2018-03-24T14:37:56.486Z,13.97
2018-03-24T14:40:23.977Z,14.90
2018-03-24T14:42:52.203Z,13.83
2018-03-24T14:45:19.687Z,12.90
2018-03-24T14:47:47.155Z,12.67
2018-03-24T14:50:14.624Z,12.77
2018-03-24T14:52:42.108Z,13.20
2018-03-24T14:55:10.373Z,13.37
2018-03-24T14:57:37.826Z,13.53
2018-03-24T15:00:05.313Z,12.30
2018-03-24T15:02:33.545Z,12.60
2018-03-24T15:05:01.012Z,13.43
2018-03-24T15:07:28.473Z,13.03
2018-03-24T15:09:55.953Z,12.33
2018-03-24T15:12:23.471Z,12.27
2018-03-24T15:14:50.906Z,11.23
2018-03-24T15:17:19.152Z,11.33
2018-03-24T15:19:46.625Z,11.23
2018-03-24T15:22:14.134Z,14.80
2018-03-24T15:24:41.605Z,14.87
2018-03-24T15:27:09.094Z,15.10
2018-03-24T15:29:48.292Z,12.53
2018-03-24T15:32:27.735Z,12.93
2018-03-24T15:35:07.199Z,11.70
2018-03-24T15:37:34.658Z,10.70
2018-03-24T15:40:02.139Z,10.97
2018-03-24T15:42:29.611Z,11.80
2018-03-24T15:44:57.076Z,12.30
2018-03-24T15:47:25.375Z,12.03
2018-03-24T15:49:53.597Z,11.80
2018-03-24T15:52:21.063Z,11.33
2018-03-24T15:54:48.530Z,12.00
2018-03-24T15:57:16.001Z,11.63
2018-03-24T15:59:43.453Z,12.13
2018-03-24T16:02:10.932Z,11.80
2018-03-24T16:04:38.389Z,11.70
2018-03-24T16:07:05.882Z,11.53
2018-03-24T16:09:34.119Z,12.20
2018-03-24T16:12:01.596Z,11.03
2018-03-24T16:14:29.068Z,11.93
2018-03-24T16:16:56.532Z,12.10
2018-03-24T16:19:24.001Z,10.77
2018-03-24T16:21:51.480Z,11.60
2018-03-24T16:24:19.706Z,11.90
2018-03-24T16:26:47.191Z,11.93
2018-03-24T16:29:14.671Z,11.20
2018-03-24T16:31:42.143Z,11.23
2018-03-24T16:34:10.382Z,12.83
2018-03-24T16:36:37.845Z,11.50
2018-03-24T16:39:05.324Z,11.93
2018-03-24T16:41:32.813Z,11.33
2018-03-24T16:44:01.043Z,10.97
2018-03-24T16:46:28.506Z,11.53
2018-03-24T16:48:55.952Z,11.40
2018-03-24T16:51:23.438Z,12.17
2018-03-24T16:53:50.894Z,11.17
2018-03-24T16:56:18.361Z,11.63
2018-03-24T16:58:45.833Z,11.17
2018-03-24T17:01:13.306Z,12.13
2018-03-24T17:03:40.793Z,10.93
2018-03-24T17:06:09.026Z,11.23
2018-03-24T17:08:36.496Z,11.63
2018-03-24T17:11:03.967Z,10.77
2018-03-24T17:13:31.445Z,11.50
2018-03-24T17:15:58.918Z,11.03
2018-03-24T17:18:27.158Z,11.30
2018-03-24T17:20:54.626Z,11.50
2018-03-24T17:23:22.122Z,11.50
2018-03-24T17:25:49.573Z,12.17
2018-03-24T17:28:17.062Z,11.57
2018-03-24T17:30:44.528Z,10.73
2018-03-24T17:33:12.015Z,12.43
2018-03-24T17:35:39.458Z,11.07
2018-03-24T17:38:06.933Z,12.03
2018-03-24T17:40:34.393Z,10.50
2018-03-24T17:43:01.875Z,12.00
2018-03-24T17:45:29.338Z,10.00
2018-03-24T17:47:56.816Z,11.60
2018-03-24T17:50:24.274Z,11.33
2018-03-24T17:52:51.749Z,12.30
2018-03-24T17:55:19.210Z,11.73
2018-03-24T17:57:46.663Z,12.17
2018-03-24T18:00:14.125Z,10.97
2018-03-24T18:02:41.608Z,11.40
2018-03-24T18:05:09.102Z,11.03
2018-03-24T18:07:36.544Z,12.30
2018-03-24T18:10:04.079Z,11.80
2018-03-24T18:12:32.238Z,10.93
2018-03-24T18:14:59.715Z,11.17
2018-03-24T18:17:27.213Z,11.63
2018-03-24T18:19:54.731Z,11.73
2018-03-24T18:22:22.204Z,12.13
2018-03-24T18:24:49.668Z,12.27
2018-03-24T18:27:17.129Z,11.97
2018-03-24T18:29:44.607Z,12.10
2018-03-24T18:32:12.058Z,11.73
2018-03-24T18:34:39.541Z,11.70
2018-03-24T18:37:07.014Z,11.70
2018-03-24T18:39:34.490Z,11.57
2018-03-24T18:42:02.718Z,12.67
2018-03-24T18:44:30.185Z,12.33
2018-03-24T18:46:57.648Z,12.67
2018-03-24T18:49:25.113Z,12.50
2018-03-24T18:51:52.567Z,12.63
2018-03-24T18:54:20.041Z,12.83
2018-03-24T18:56:47.506Z,14.20
2018-03-24T18:59:14.969Z,13.93
2018-03-24T19:01:42.432Z,16.47
2018-03-24T19:04:09.911Z,14.33
2018-03-24T19:06:37.377Z,13.90
2018-03-24T19:09:06.806Z,13.90
2018-03-24T19:11:35.049Z,14.13
2018-03-24T19:14:02.501Z,13.83
2018-03-24T19:16:29.966Z,13.63
2018-03-24T19:18:57.423Z,13.07
2018-03-24T19:21:24.883Z,12.63
2018-03-24T19:23:52.355Z,12.87
2018-03-24T19:26:20.806Z,12.17
2018-03-24T19:28:48.266Z,15.83
2018-03-24T19:31:15.744Z,15.90
2018-03-24T19:33:43.197Z,15.13
2018-03-24T19:36:10.669Z,18.83
2018-03-24T19:38:38.138Z,19.07
2018-03-24T19:41:05.620Z,17.37
2018-03-24T19:43:33.083Z,15.40
2018-03-24T19:46:00.557Z,18.80
2018-03-24T19:48:28.026Z,20.07
2018-03-24T19:50:55.512Z,20.70
2018-03-24T19:53:23.756Z,19.73
2018-03-24T19:55:51.225Z,18.83
2018-03-24T19:58:18.687Z,18.03
2018-03-24T20:00:46.152Z,17.70
2018-03-24T20:03:13.652Z,16.70
2018-03-24T20:05:41.115Z,15.73
2018-03-24T20:08:08.585Z,16.23
2018-03-24T20:10:36.148Z,17.03
2018-03-24T20:13:03.622Z,17.97
2018-03-24T20:15:31.080Z,20.27
2018-03-24T20:17:58.542Z,19.03
2018-03-24T20:20:26.014Z,18.37
2018-03-24T20:22:53.494Z,17.07
2018-03-24T20:25:21.933Z,16.70
2018-03-24T20:27:50.168Z,16.10
2018-03-24T20:30:17.617Z,17.83
2018-03-24T20:32:45.076Z,16.77
2018-03-24T20:35:12.547Z,19.03
2018-03-24T20:37:40.038Z,17.90
2018-03-24T20:40:07.494Z,21.07
2018-03-24T20:42:34.975Z,31.97
2018-03-24T20:45:03.198Z,32.33
2018-03-24T20:47:30.669Z,19.80
2018-03-24T20:49:58.136Z,19.60
2018-03-24T20:52:25.599Z,25.07
2018-03-24T20:54:53.059Z,37.20
2018-03-24T20:57:20.517Z,37.93
2018-03-24T20:59:47.984Z,35.70
2018-03-24T21:02:15.496Z,30.07
2018-03-24T21:04:43.754Z,29.03
2018-03-24T21:07:11.214Z,28.37
2018-03-24T21:09:38.682Z,26.97
2018-03-24T21:12:06.931Z,26.37
2018-03-24T21:14:34.390Z,26.10
2018-03-24T21:17:01.888Z,27.77
2018-03-24T21:19:29.342Z,27.03
2018-03-24T21:21:56.805Z,26.93
2018-03-24T21:24:24.315Z,25.90
2018-03-24T21:26:52.592Z,27.73
2018-03-24T21:29:20.061Z,25.50
2018-03-24T21:31:47.534Z,26.60
2018-03-24T21:34:14.993Z,25.93
2018-03-24T21:36:43.223Z,25.40
2018-03-24T21:39:10.683Z,27.27
2018-03-24T21:41:38.135Z,27.00
2018-03-24T21:44:05.601Z,25.50
2018-03-24T21:46:34.043Z,24.20
2018-03-24T21:49:01.508Z,26.57
2018-03-24T21:51:28.972Z,25.83
2018-03-24T21:53:56.458Z,25.40
2018-03-24T21:56:23.928Z,25.47
2018-03-24T21:58:51.451Z,25.20
2018-03-24T22:01:18.873Z,23.93
2018-03-24T22:03:46.347Z,24.33
2018-03-24T22:06:14.558Z,23.73
2018-03-24T22:08:42.021Z,20.77
2018-03-24T22:11:09.485Z,20.97
2018-03-24T22:13:36.961Z,20.43
2018-03-24T22:16:05.175Z,21.43
2018-03-24T22:18:32.635Z,20.57
2018-03-24T22:21:00.121Z,20.63
2018-03-24T22:23:28.329Z,20.57
2018-03-24T22:25:55.801Z,19.03
2018-03-24T22:28:24.034Z,17.70
2018-03-24T22:30:51.519Z,18.43
2018-03-24T22:33:19.741Z,18.60
2018-03-24T22:35:47.204Z,17.77
2018-03-24T22:38:14.667Z,17.30
2018-03-24T22:40:42.137Z,17.83
2018-03-24T22:43:09.594Z,17.33
2018-03-24T22:45:37.059Z,16.90
2018-03-24T22:48:05.490Z,17.57
2018-03-24T22:50:33.715Z,18.43
2018-03-24T22:53:01.174Z,17.87
2018-03-24T22:55:28.647Z,18.60
2018-03-24T22:57:56.109Z,18.10
2018-03-24T23:00:23.565Z,17.97
2018-03-24T23:02:51.034Z,17.87
2018-03-24T23:05:18.510Z,16.30
2018-03-24T23:07:45.978Z,16.37
2018-03-24T23:10:13.453Z,16.33
2018-03-24T23:12:40.901Z,16.57
2018-03-24T23:15:08.365Z,17.00
2018-03-24T23:17:35.822Z,16.60
2018-03-24T23:20:03.285Z,17.67
2018-03-24T23:22:30.749Z,18.07
2018-03-24T23:24:58.217Z,16.27
2018-03-24T23:27:25.677Z,17.43
2018-03-24T23:29:53.124Z,16.63
2018-03-24T23:32:20.606Z,17.97
2018-03-24T23:34:48.088Z,15.63
2018-03-24T23:37:15.550Z,16.97
2018-03-24T23:39:43.017Z,16.83
2018-03-24T23:42:10.480Z,16.60
2018-03-24T23:44:37.948Z,16.27
2018-03-24T23:47:06.183Z,16.73
2018-03-24T23:49:33.648Z,16.13
2018-03-24T23:52:01.122Z,16.27
2018-03-24T23:54:28.564Z,15.47
2018-03-24T23:56:56.027Z,16.33
2018-03-24T23:59:23.495Z,16.10
